sensor_id;sensor_type;location;lat;lon;timestamp;P1;durP1;ratioP1;P2;durP2;ratioP2
83827;SDS011;74656;48.870;12.562;2024-01-06T00:02:20;14.68;;;8.82;;
83827;SDS011;74656;48.870;12.562;2024-01-06T00:05:23;13.80;;;8.70;;
83827;SDS011;74656;48.870;12.562;2024-01-06T00:08:24;14.68;;;7.78;;
83827;SDS011;74656;48.870;12.562;2024-01-06T00:11:26;9.30;;;7.72;;
83827;SDS011;74656;48.870;12.562;2024-01-06T00:14:28;13.32;;;8.68;;
83827;SDS011;74656;48.870;12.562;2024-01-06T00:17:29;13.10;;;8.98;;
83827;SDS011;74656;48.870;12.562;2024-01-06T00:20:31;13.32;;;9.07;;
83827;SDS011;74656;48.870;12.562;2024-01-06T00:23:33;12.98;;;8.30;;
83827;SDS011;74656;48.870;12.562;2024-01-06T00:26:34;12.73;;;8.23;;
83827;SDS011;74656;48.870;12.562;2024-01-06T00:29:37;11.57;;;8.55;;
83827;SDS011;74656;48.870;12.562;2024-01-06T00:32:39;12.27;;;8.43;;
83827;SDS011;74656;48.870;12.562;2024-01-06T00:35:42;14.95;;;9.77;;
83827;SDS011;74656;48.870;12.562;2024-01-06T00:38:44;16.63;;;11.25;;
83827;SDS011;74656;48.870;12.562;2024-01-06T00:41:46;14.35;;;9.05;;
83827;SDS011;74656;48.870;12.562;2024-01-06T00:44:47;14.05;;;9.52;;
83827;SDS011;74656;48.870;12.562;2024-01-06T00:47:50;15.55;;;9.75;;
83827;SDS011;74656;48.870;12.562;2024-01-06T00:50:52;14.57;;;9.38;;
83827;SDS011;74656;48.870;12.562;2024-01-06T00:53:54;12.55;;;9.70;;
83827;SDS011;74656;48.870;12.562;2024-01-06T00:56:56;14.52;;;10.02;;
83827;SDS011;74656;48.870;12.562;2024-01-06T00:59:59;15.27;;;8.48;;
83827;SDS011;74656;48.870;12.562;2024-01-06T01:03:01;15.82;;;10.38;;
83827;SDS011;74656;48.870;12.562;2024-01-06T01:06:21;16.40;;;9.25;;
83827;SDS011;74656;48.870;12.562;2024-01-06T01:09:24;15.40;;;9.20;;
83827;SDS011;74656;48.870;12.562;2024-01-06T01:12:26;15.52;;;10.18;;
83827;SDS011;74656;48.870;12.562;2024-01-06T01:15:28;15.90;;;9.13;;
83827;SDS011;74656;48.870;12.562;2024-01-06T01:18:30;14.95;;;9.00;;
83827;SDS011;74656;48.870;12.562;2024-01-06T01:21:32;15.35;;;9.05;;
83827;SDS011;74656;48.870;12.562;2024-01-06T01:24:34;18.80;;;10.18;;
83827;SDS011;74656;48.870;12.562;2024-01-06T01:27:37;13.55;;;8.63;;
83827;SDS011;74656;48.870;12.562;2024-01-06T01:30:39;15.20;;;10.45;;
83827;SDS011;74656;48.870;12.562;2024-01-06T01:33:41;13.63;;;9.85;;
83827;SDS011;74656;48.870;12.562;2024-01-06T01:36:43;14.88;;;8.98;;
83827;SDS011;74656;48.870;12.562;2024-01-06T01:39:45;16.45;;;8.90;;
83827;SDS011;74656;48.870;12.562;2024-01-06T01:42:47;17.40;;;10.73;;
83827;SDS011;74656;48.870;12.562;2024-01-06T01:45:53;17.45;;;9.82;;
83827;SDS011;74656;48.870;12.562;2024-01-06T01:48:55;12.18;;;8.57;;
83827;SDS011;74656;48.870;12.562;2024-01-06T01:51:59;17.15;;;9.70;;
83827;SDS011;74656;48.870;12.562;2024-01-06T01:55:01;13.77;;;7.97;;
83827;SDS011;74656;48.870;12.562;2024-01-06T01:58:03;13.38;;;8.95;;
83827;SDS011;74656;48.870;12.562;2024-01-06T02:01:06;14.65;;;8.70;;
83827;SDS011;74656;48.870;12.562;2024-01-06T02:04:09;17.77;;;10.05;;
83827;SDS011;74656;48.870;12.562;2024-01-06T02:07:11;14.75;;;10.07;;
83827;SDS011;74656;48.870;12.562;2024-01-06T02:10:14;13.18;;;9.88;;
83827;SDS011;74656;48.870;12.562;2024-01-06T02:13:16;15.77;;;10.30;;
83827;SDS011;74656;48.870;12.562;2024-01-06T02:16:18;12.95;;;8.80;;
83827;SDS011;74656;48.870;12.562;2024-01-06T02:19:20;15.10;;;9.18;;
83827;SDS011;74656;48.870;12.562;2024-01-06T02:22:22;11.68;;;8.13;;
83827;SDS011;74656;48.870;12.562;2024-01-06T02:25:24;11.45;;;8.02;;
83827;SDS011;74656;48.870;12.562;2024-01-06T02:28:26;13.02;;;8.32;;
83827;SDS011;74656;48.870;12.562;2024-01-06T02:31:28;13.80;;;8.88;;
83827;SDS011;74656;48.870;12.562;2024-01-06T02:34:31;12.95;;;9.55;;
83827;SDS011;74656;48.870;12.562;2024-01-06T02:37:33;14.15;;;9.93;;
83827;SDS011;74656;48.870;12.562;2024-01-06T02:40:35;11.82;;;10.02;;
83827;SDS011;74656;48.870;12.562;2024-01-06T02:43:37;13.25;;;9.82;;
83827;SDS011;74656;48.870;12.562;2024-01-06T02:46:39;15.80;;;9.98;;
83827;SDS011;74656;48.870;12.562;2024-01-06T02:49:41;14.48;;;8.35;;
83827;SDS011;74656;48.870;12.562;2024-01-06T02:52:44;15.07;;;10.00;;
83827;SDS011;74656;48.870;12.562;2024-01-06T02:55:46;17.60;;;9.73;;
83827;SDS011;74656;48.870;12.562;2024-01-06T02:58:48;16.35;;;9.93;;
83827;SDS011;74656;48.870;12.562;2024-01-06T03:01:50;13.82;;;9.30;;
83827;SDS011;74656;48.870;12.562;2024-01-06T03:04:53;16.52;;;10.13;;
83827;SDS011;74656;48.870;12.562;2024-01-06T03:07:55;14.15;;;9.40;;
83827;SDS011;74656;48.870;12.562;2024-01-06T03:10:57;15.15;;;9.70;;
83827;SDS011;74656;48.870;12.562;2024-01-06T03:14:00;14.48;;;9.50;;
83827;SDS011;74656;48.870;12.562;2024-01-06T03:17:01;14.45;;;9.73;;
83827;SDS011;74656;48.870;12.562;2024-01-06T03:20:04;15.07;;;9.98;;
83827;SDS011;74656;48.870;12.562;2024-01-06T03:23:06;16.17;;;10.05;;
83827;SDS011;74656;48.870;12.562;2024-01-06T03:26:08;13.43;;;9.73;;
83827;SDS011;74656;48.870;12.562;2024-01-06T03:29:10;15.50;;;10.60;;
83827;SDS011;74656;48.870;12.562;2024-01-06T03:32:12;13.55;;;9.70;;
83827;SDS011;74656;48.870;12.562;2024-01-06T03:35:14;15.48;;;10.02;;
83827;SDS011;74656;48.870;12.562;2024-01-06T03:38:16;16.30;;;10.13;;
83827;SDS011;74656;48.870;12.562;2024-01-06T03:41:18;16.73;;;10.48;;
83827;SDS011;74656;48.870;12.562;2024-01-06T03:44:20;14.95;;;10.55;;
83827;SDS011;74656;48.870;12.562;2024-01-06T03:47:21;17.77;;;11.55;;
83827;SDS011;74656;48.870;12.562;2024-01-06T03:50:23;14.43;;;9.65;;
83827;SDS011;74656;48.870;12.562;2024-01-06T03:53:25;16.08;;;10.18;;
83827;SDS011;74656;48.870;12.562;2024-01-06T03:56:27;15.52;;;10.95;;
83827;SDS011;74656;48.870;12.562;2024-01-06T03:59:29;16.65;;;10.88;;
83827;SDS011;74656;48.870;12.562;2024-01-06T04:02:31;14.90;;;10.18;;
83827;SDS011;74656;48.870;12.562;2024-01-06T04:05:33;17.70;;;10.93;;
83827;SDS011;74656;48.870;12.562;2024-01-06T04:08:39;14.65;;;9.38;;
83827;SDS011;74656;48.870;12.562;2024-01-06T04:11:41;15.13;;;10.00;;
83827;SDS011;74656;48.870;12.562;2024-01-06T04:14:43;14.07;;;10.65;;
83827;SDS011;74656;48.870;12.562;2024-01-06T04:17:47;15.23;;;10.35;;
83827;SDS011;74656;48.870;12.562;2024-01-06T04:20:50;14.90;;;9.60;;
83827;SDS011;74656;48.870;12.562;2024-01-06T04:23:52;16.70;;;9.25;;
83827;SDS011;74656;48.870;12.562;2024-01-06T04:26:54;16.27;;;10.88;;
83827;SDS011;74656;48.870;12.562;2024-01-06T04:29:56;17.85;;;10.95;;
83827;SDS011;74656;48.870;12.562;2024-01-06T04:32:58;15.02;;;10.40;;
83827;SDS011;74656;48.870;12.562;2024-01-06T04:36:00;15.15;;;10.02;;
83827;SDS011;74656;48.870;12.562;2024-01-06T04:39:02;16.80;;;11.20;;
83827;SDS011;74656;48.870;12.562;2024-01-06T04:42:04;15.27;;;10.43;;
83827;SDS011;74656;48.870;12.562;2024-01-06T04:45:06;17.13;;;11.00;;
83827;SDS011;74656;48.870;12.562;2024-01-06T04:48:09;13.18;;;10.02;;
83827;SDS011;74656;48.870;12.562;2024-01-06T04:51:11;17.30;;;10.18;;
83827;SDS011;74656;48.870;12.562;2024-01-06T04:54:13;16.95;;;10.57;;
83827;SDS011;74656;48.870;12.562;2024-01-06T04:57:15;17.08;;;11.80;;
83827;SDS011;74656;48.870;12.562;2024-01-06T05:00:17;19.13;;;11.30;;
83827;SDS011;74656;48.870;12.562;2024-01-06T05:03:19;16.00;;;11.75;;
83827;SDS011;74656;48.870;12.562;2024-01-06T05:06:22;18.40;;;11.50;;
83827;SDS011;74656;48.870;12.562;2024-01-06T05:09:27;16.58;;;11.35;;
83827;SDS011;74656;48.870;12.562;2024-01-06T05:12:29;18.55;;;10.75;;
83827;SDS011;74656;48.870;12.562;2024-01-06T05:15:31;17.27;;;11.38;;
83827;SDS011;74656;48.870;12.562;2024-01-06T05:18:33;16.52;;;10.75;;
83827;SDS011;74656;48.870;12.562;2024-01-06T05:21:36;17.55;;;9.93;;
83827;SDS011;74656;48.870;12.562;2024-01-06T05:24:38;19.73;;;12.60;;
83827;SDS011;74656;48.870;12.562;2024-01-06T05:27:40;18.05;;;11.82;;
83827;SDS011;74656;48.870;12.562;2024-01-06T05:30:42;22.77;;;13.68;;
83827;SDS011;74656;48.870;12.562;2024-01-06T05:33:44;15.50;;;10.55;;
83827;SDS011;74656;48.870;12.562;2024-01-06T05:36:46;21.35;;;12.73;;
83827;SDS011;74656;48.870;12.562;2024-01-06T05:39:48;20.30;;;12.45;;
83827;SDS011;74656;48.870;12.562;2024-01-06T05:42:50;19.63;;;12.18;;
83827;SDS011;74656;48.870;12.562;2024-01-06T05:45:52;20.65;;;12.05;;
83827;SDS011;74656;48.870;12.562;2024-01-06T05:48:54;20.00;;;11.20;;
83827;SDS011;74656;48.870;12.562;2024-01-06T05:51:56;22.38;;;11.95;;
83827;SDS011;74656;48.870;12.562;2024-01-06T05:54:58;18.95;;;12.23;;
83827;SDS011;74656;48.870;12.562;2024-01-06T05:58:00;25.98;;;13.05;;
83827;SDS011;74656;48.870;12.562;2024-01-06T06:01:02;21.67;;;12.93;;
83827;SDS011;74656;48.870;12.562;2024-01-06T06:04:05;21.02;;;12.77;;
83827;SDS011;74656;48.870;12.562;2024-01-06T06:07:07;22.33;;;13.18;;
83827;SDS011;74656;48.870;12.562;2024-01-06T06:10:10;21.35;;;13.45;;
83827;SDS011;74656;48.870;12.562;2024-01-06T06:13:12;22.35;;;12.50;;
83827;SDS011;74656;48.870;12.562;2024-01-06T06:16:14;18.77;;;11.60;;
83827;SDS011;74656;48.870;12.562;2024-01-06T06:19:16;22.35;;;12.60;;
83827;SDS011;74656;48.870;12.562;2024-01-06T06:22:18;20.45;;;12.50;;
83827;SDS011;74656;48.870;12.562;2024-01-06T06:25:20;21.55;;;12.07;;
83827;SDS011;74656;48.870;12.562;2024-01-06T06:28:22;23.30;;;12.80;;
83827;SDS011;74656;48.870;12.562;2024-01-06T06:31:24;22.20;;;11.70;;
83827;SDS011;74656;48.870;12.562;2024-01-06T06:34:26;19.52;;;11.63;;
83827;SDS011;74656;48.870;12.562;2024-01-06T06:37:29;20.88;;;11.88;;
83827;SDS011;74656;48.870;12.562;2024-01-06T06:40:31;18.90;;;11.77;;
83827;SDS011;74656;48.870;12.562;2024-01-06T06:43:33;17.90;;;11.13;;
83827;SDS011;74656;48.870;12.562;2024-01-06T06:46:34;18.60;;;11.48;;
83827;SDS011;74656;48.870;12.562;2024-01-06T06:49:36;16.17;;;11.10;;
83827;SDS011;74656;48.870;12.562;2024-01-06T06:52:38;16.30;;;10.25;;
83827;SDS011;74656;48.870;12.562;2024-01-06T06:55:41;19.38;;;11.25;;
83827;SDS011;74656;48.870;12.562;2024-01-06T06:58:42;18.25;;;10.93;;
83827;SDS011;74656;48.870;12.562;2024-01-06T07:01:44;16.42;;;9.45;;
83827;SDS011;74656;48.870;12.562;2024-01-06T07:04:46;17.75;;;10.07;;
83827;SDS011;74656;48.870;12.562;2024-01-06T07:07:48;16.73;;;11.00;;
83827;SDS011;74656;48.870;12.562;2024-01-06T07:10:50;18.10;;;11.20;;
83827;SDS011;74656;48.870;12.562;2024-01-06T07:13:52;15.68;;;10.18;;
83827;SDS011;74656;48.870;12.562;2024-01-06T07:16:53;18.15;;;10.55;;
83827;SDS011;74656;48.870;12.562;2024-01-06T07:19:55;16.95;;;10.70;;
83827;SDS011;74656;48.870;12.562;2024-01-06T07:22:57;16.50;;;9.40;;
83827;SDS011;74656;48.870;12.562;2024-01-06T07:26:00;14.65;;;9.50;;
83827;SDS011;74656;48.870;12.562;2024-01-06T07:29:02;13.90;;;9.85;;
83827;SDS011;74656;48.870;12.562;2024-01-06T07:32:04;17.27;;;10.45;;
83827;SDS011;74656;48.870;12.562;2024-01-06T07:35:06;16.33;;;11.10;;
83827;SDS011;74656;48.870;12.562;2024-01-06T07:38:09;15.20;;;10.80;;
83827;SDS011;74656;48.870;12.562;2024-01-06T07:41:11;15.85;;;10.63;;
83827;SDS011;74656;48.870;12.562;2024-01-06T07:44:13;15.38;;;9.43;;
83827;SDS011;74656;48.870;12.562;2024-01-06T07:47:15;17.60;;;11.60;;
83827;SDS011;74656;48.870;12.562;2024-01-06T07:50:17;14.77;;;9.57;;
83827;SDS011;74656;48.870;12.562;2024-01-06T07:53:19;15.98;;;9.07;;
83827;SDS011;74656;48.870;12.562;2024-01-06T07:56:21;13.88;;;9.15;;
83827;SDS011;74656;48.870;12.562;2024-01-06T07:59:23;15.02;;;9.20;;
83827;SDS011;74656;48.870;12.562;2024-01-06T08:02:25;12.00;;;8.80;;
83827;SDS011;74656;48.870;12.562;2024-01-06T08:05:27;12.50;;;8.73;;
83827;SDS011;74656;48.870;12.562;2024-01-06T08:08:29;15.15;;;9.77;;
83827;SDS011;74656;48.870;12.562;2024-01-06T08:11:31;12.52;;;9.23;;
83827;SDS011;74656;48.870;12.562;2024-01-06T08:14:32;19.52;;;11.95;;
83827;SDS011;74656;48.870;12.562;2024-01-06T08:17:34;16.02;;;9.98;;
83827;SDS011;74656;48.870;12.562;2024-01-06T08:20:39;14.30;;;8.57;;
83827;SDS011;74656;48.870;12.562;2024-01-06T08:23:41;13.57;;;9.23;;
83827;SDS011;74656;48.870;12.562;2024-01-06T08:26:43;17.90;;;8.35;;
83827;SDS011;74656;48.870;12.562;2024-01-06T08:29:45;14.55;;;8.63;;
83827;SDS011;74656;48.870;12.562;2024-01-06T08:32:47;12.30;;;8.50;;
83827;SDS011;74656;48.870;12.562;2024-01-06T08:35:49;17.45;;;8.75;;
83827;SDS011;74656;48.870;12.562;2024-01-06T08:38:51;12.70;;;8.93;;
83827;SDS011;74656;48.870;12.562;2024-01-06T08:41:53;12.05;;;8.02;;
83827;SDS011;74656;48.870;12.562;2024-01-06T08:44:55;12.15;;;8.75;;
83827;SDS011;74656;48.870;12.562;2024-01-06T08:47:57;10.93;;;7.35;;
83827;SDS011;74656;48.870;12.562;2024-01-06T08:50:59;14.02;;;7.47;;
83827;SDS011;74656;48.870;12.562;2024-01-06T08:54:01;12.85;;;8.43;;
83827;SDS011;74656;48.870;12.562;2024-01-06T08:57:03;14.63;;;9.55;;
83827;SDS011;74656;48.870;12.562;2024-01-06T09:00:05;12.57;;;8.55;;
83827;SDS011;74656;48.870;12.562;2024-01-06T09:03:07;14.98;;;9.57;;
83827;SDS011;74656;48.870;12.562;2024-01-06T09:06:09;14.30;;;8.35;;
83827;SDS011;74656;48.870;12.562;2024-01-06T09:09:11;10.63;;;8.27;;
83827;SDS011;74656;48.870;12.562;2024-01-06T09:12:13;10.40;;;7.20;;
83827;SDS011;74656;48.870;12.562;2024-01-06T09:15:15;13.50;;;7.72;;
83827;SDS011;74656;48.870;12.562;2024-01-06T09:18:17;12.00;;;9.10;;
83827;SDS011;74656;48.870;12.562;2024-01-06T09:21:20;8.95;;;6.25;;
83827;SDS011;74656;48.870;12.562;2024-01-06T09:24:22;12.30;;;7.15;;
83827;SDS011;74656;48.870;12.562;2024-01-06T09:27:24;11.27;;;6.65;;
83827;SDS011;74656;48.870;12.562;2024-01-06T09:30:25;9.00;;;6.30;;
83827;SDS011;74656;48.870;12.562;2024-01-06T09:33:27;8.13;;;5.97;;
83827;SDS011;74656;48.870;12.562;2024-01-06T09:36:30;10.43;;;6.78;;
83827;SDS011;74656;48.870;12.562;2024-01-06T09:39:33;8.73;;;5.45;;
83827;SDS011;74656;48.870;12.562;2024-01-06T09:42:35;8.00;;;6.65;;
83827;SDS011;74656;48.870;12.562;2024-01-06T09:45:37;10.63;;;6.07;;
83827;SDS011;74656;48.870;12.562;2024-01-06T09:48:40;10.60;;;6.03;;
83827;SDS011;74656;48.870;12.562;2024-01-06T09:51:42;9.45;;;5.97;;
83827;SDS011;74656;48.870;12.562;2024-01-06T09:54:48;9.02;;;5.70;;
83827;SDS011;74656;48.870;12.562;2024-01-06T09:57:55;9.65;;;6.20;;
83827;SDS011;74656;48.870;12.562;2024-01-06T10:00:57;10.25;;;6.38;;
83827;SDS011;74656;48.870;12.562;2024-01-06T10:03:59;11.10;;;7.18;;
83827;SDS011;74656;48.870;12.562;2024-01-06T10:07:01;10.43;;;6.45;;
83827;SDS011;74656;48.870;12.562;2024-01-06T10:10:03;10.77;;;6.38;;
83827;SDS011;74656;48.870;12.562;2024-01-06T10:13:08;9.65;;;6.75;;
83827;SDS011;74656;48.870;12.562;2024-01-06T10:16:09;10.75;;;6.57;;
83827;SDS011;74656;48.870;12.562;2024-01-06T10:19:12;9.40;;;6.13;;
83827;SDS011;74656;48.870;12.562;2024-01-06T10:22:14;8.85;;;5.78;;
83827;SDS011;74656;48.870;12.562;2024-01-06T10:25:16;11.52;;;6.70;;
83827;SDS011;74656;48.870;12.562;2024-01-06T10:28:18;10.15;;;7.20;;
83827;SDS011;74656;48.870;12.562;2024-01-06T10:31:21;9.90;;;6.10;;
83827;SDS011;74656;48.870;12.562;2024-01-06T10:34:24;9.55;;;7.05;;
83827;SDS011;74656;48.870;12.562;2024-01-06T10:37:27;9.48;;;6.63;;
83827;SDS011;74656;48.870;12.562;2024-01-06T10:40:29;7.18;;;5.97;;
83827;SDS011;74656;48.870;12.562;2024-01-06T10:43:31;10.52;;;6.32;;
83827;SDS011;74656;48.870;12.562;2024-01-06T10:46:34;8.18;;;6.43;;
83827;SDS011;74656;48.870;12.562;2024-01-06T10:49:38;8.30;;;6.68;;
83827;SDS011;74656;48.870;12.562;2024-01-06T10:52:40;9.15;;;6.75;;
83827;SDS011;74656;48.870;12.562;2024-01-06T10:55:43;10.63;;;6.85;;
83827;SDS011;74656;48.870;12.562;2024-01-06T10:58:47;11.27;;;7.05;;
83827;SDS011;74656;48.870;12.562;2024-01-06T11:01:50;9.07;;;6.55;;
83827;SDS011;74656;48.870;12.562;2024-01-06T11:04:54;10.70;;;6.60;;
83827;SDS011;74656;48.870;12.562;2024-01-06T11:07:56;13.98;;;6.82;;
83827;SDS011;74656;48.870;12.562;2024-01-06T11:10:59;9.20;;;6.00;;
83827;SDS011;74656;48.870;12.562;2024-01-06T11:24:24;9.38;;;6.60;;
83827;SDS011;74656;48.870;12.562;2024-01-06T11:27:28;12.70;;;5.72;;
83827;SDS011;74656;48.870;12.562;2024-01-06T11:33:45;11.80;;;6.40;;
83827;SDS011;74656;48.870;12.562;2024-01-06T11:36:48;7.93;;;4.97;;
83827;SDS011;74656;48.870;12.562;2024-01-06T11:39:50;8.18;;;5.88;;
83827;SDS011;74656;48.870;12.562;2024-01-06T11:42:56;11.40;;;5.57;;
83827;SDS011;74656;48.870;12.562;2024-01-06T11:45:58;7.25;;;4.88;;
83827;SDS011;74656;48.870;12.562;2024-01-06T11:49:01;9.68;;;5.55;;
83827;SDS011;74656;48.870;12.562;2024-01-06T11:52:03;10.13;;;5.53;;
83827;SDS011;74656;48.870;12.562;2024-01-06T11:55:06;8.77;;;5.55;;
83827;SDS011;74656;48.870;12.562;2024-01-06T11:58:10;7.07;;;4.82;;
83827;SDS011;74656;48.870;12.562;2024-01-06T12:01:11;7.93;;;5.13;;
83827;SDS011;74656;48.870;12.562;2024-01-06T12:04:14;9.57;;;5.13;;
83827;SDS011;74656;48.870;12.562;2024-01-06T12:07:16;15.55;;;8.55;;
83827;SDS011;74656;48.870;12.562;2024-01-06T12:10:20;7.32;;;5.30;;
83827;SDS011;74656;48.870;12.562;2024-01-06T12:13:22;9.20;;;5.20;;
83827;SDS011;74656;48.870;12.562;2024-01-06T12:16:24;5.93;;;4.75;;
83827;SDS011;74656;48.870;12.562;2024-01-06T12:19:26;7.68;;;5.35;;
83827;SDS011;74656;48.870;12.562;2024-01-06T12:22:28;6.15;;;4.40;;
83827;SDS011;74656;48.870;12.562;2024-01-06T12:25:30;7.68;;;5.05;;
83827;SDS011;74656;48.870;12.562;2024-01-06T12:28:37;5.35;;;4.32;;
83827;SDS011;74656;48.870;12.562;2024-01-06T12:31:39;8.10;;;4.82;;
83827;SDS011;74656;48.870;12.562;2024-01-06T12:34:41;8.32;;;4.80;;
83827;SDS011;74656;48.870;12.562;2024-01-06T12:37:44;6.00;;;4.53;;
83827;SDS011;74656;48.870;12.562;2024-01-06T12:40:46;5.47;;;4.78;;
83827;SDS011;74656;48.870;12.562;2024-01-06T12:43:48;8.45;;;4.72;;
83827;SDS011;74656;48.870;12.562;2024-01-06T12:46:50;6.68;;;4.05;;
83827;SDS011;74656;48.870;12.562;2024-01-06T12:49:52;9.05;;;4.72;;
83827;SDS011;74656;48.870;12.562;2024-01-06T12:52:54;7.20;;;4.53;;
83827;SDS011;74656;48.870;12.562;2024-01-06T12:55:56;9.82;;;5.05;;
83827;SDS011;74656;48.870;12.562;2024-01-06T12:58:58;7.18;;;4.85;;
83827;SDS011;74656;48.870;12.562;2024-01-06T13:02:00;7.38;;;5.10;;
83827;SDS011;74656;48.870;12.562;2024-01-06T13:05:02;9.90;;;5.57;;
83827;SDS011;74656;48.870;12.562;2024-01-06T13:08:05;8.35;;;5.72;;
83827;SDS011;74656;48.870;12.562;2024-01-06T13:11:07;8.32;;;5.22;;
83827;SDS011;74656;48.870;12.562;2024-01-06T13:14:09;7.88;;;5.20;;
83827;SDS011;74656;48.870;12.562;2024-01-06T13:17:11;7.40;;;4.47;;
83827;SDS011;74656;48.870;12.562;2024-01-06T13:20:13;9.85;;;5.70;;
83827;SDS011;74656;48.870;12.562;2024-01-06T13:23:15;12.02;;;5.70;;
83827;SDS011;74656;48.870;12.562;2024-01-06T13:26:17;9.00;;;5.57;;
83827;SDS011;74656;48.870;12.562;2024-01-06T13:29:19;9.30;;;5.05;;
83827;SDS011;74656;48.870;12.562;2024-01-06T13:32:20;7.65;;;5.65;;
83827;SDS011;74656;48.870;12.562;2024-01-06T13:35:22;8.00;;;5.82;;
83827;SDS011;74656;48.870;12.562;2024-01-06T13:38:25;8.13;;;5.63;;
83827;SDS011;74656;48.870;12.562;2024-01-06T13:41:27;9.40;;;5.35;;
83827;SDS011;74656;48.870;12.562;2024-01-06T13:44:29;10.32;;;6.72;;
83827;SDS011;74656;48.870;12.562;2024-01-06T13:47:31;8.00;;;4.93;;
83827;SDS011;74656;48.870;12.562;2024-01-06T13:50:33;9.48;;;5.22;;
83827;SDS011;74656;48.870;12.562;2024-01-06T13:53:35;7.32;;;5.05;;
83827;SDS011;74656;48.870;12.562;2024-01-06T13:56:37;6.57;;;4.82;;
83827;SDS011;74656;48.870;12.562;2024-01-06T13:59:39;8.95;;;4.75;;
83827;SDS011;74656;48.870;12.562;2024-01-06T14:02:41;6.00;;;4.40;;
83827;SDS011;74656;48.870;12.562;2024-01-06T14:05:43;7.28;;;5.03;;
83827;SDS011;74656;48.870;12.562;2024-01-06T14:08:44;6.80;;;4.93;;
83827;SDS011;74656;48.870;12.562;2024-01-06T14:11:46;7.05;;;4.80;;
83827;SDS011;74656;48.870;12.562;2024-01-06T14:14:48;10.00;;;4.80;;
83827;SDS011;74656;48.870;12.562;2024-01-06T14:17:50;6.75;;;4.75;;
83827;SDS011;74656;48.870;12.562;2024-01-06T14:20:52;9.70;;;5.38;;
83827;SDS011;74656;48.870;12.562;2024-01-06T14:23:54;14.23;;;7.97;;
83827;SDS011;74656;48.870;12.562;2024-01-06T14:26:56;9.00;;;5.13;;
83827;SDS011;74656;48.870;12.562;2024-01-06T14:29:59;8.07;;;4.55;;
83827;SDS011;74656;48.870;12.562;2024-01-06T14:33:02;7.90;;;4.93;;
83827;SDS011;74656;48.870;12.562;2024-01-06T14:36:04;8.23;;;4.75;;
83827;SDS011;74656;48.870;12.562;2024-01-06T14:39:06;6.35;;;4.35;;
83827;SDS011;74656;48.870;12.562;2024-01-06T14:42:08;12.57;;;8.13;;
83827;SDS011;74656;48.870;12.562;2024-01-06T14:45:10;11.02;;;6.43;;
83827;SDS011;74656;48.870;12.562;2024-01-06T14:48:12;8.05;;;4.68;;
83827;SDS011;74656;48.870;12.562;2024-01-06T14:51:15;10.15;;;5.30;;
83827;SDS011;74656;48.870;12.562;2024-01-06T14:54:17;8.88;;;5.43;;
83827;SDS011;74656;48.870;12.562;2024-01-06T14:57:19;7.18;;;5.30;;
83827;SDS011;74656;48.870;12.562;2024-01-06T15:00:21;10.32;;;5.13;;
83827;SDS011;74656;48.870;12.562;2024-01-06T15:03:23;8.15;;;5.10;;
83827;SDS011;74656;48.870;12.562;2024-01-06T15:06:24;8.10;;;5.05;;
83827;SDS011;74656;48.870;12.562;2024-01-06T15:09:27;12.70;;;5.80;;
83827;SDS011;74656;48.870;12.562;2024-01-06T15:12:28;6.88;;;4.95;;
83827;SDS011;74656;48.870;12.562;2024-01-06T15:15:30;10.60;;;6.20;;
83827;SDS011;74656;48.870;12.562;2024-01-06T15:18:32;10.75;;;6.40;;
83827;SDS011;74656;48.870;12.562;2024-01-06T15:21:35;10.38;;;6.88;;
83827;SDS011;74656;48.870;12.562;2024-01-06T15:24:37;8.77;;;5.60;;
83827;SDS011;74656;48.870;12.562;2024-01-06T15:27:39;11.68;;;7.03;;
83827;SDS011;74656;48.870;12.562;2024-01-06T15:30:41;9.50;;;5.95;;
83827;SDS011;74656;48.870;12.562;2024-01-06T15:33:43;7.65;;;6.68;;
83827;SDS011;74656;48.870;12.562;2024-01-06T15:36:45;8.32;;;6.28;;
83827;SDS011;74656;48.870;12.562;2024-01-06T15:39:48;7.68;;;6.78;;
83827;SDS011;74656;48.870;12.562;2024-01-06T15:42:50;8.60;;;5.40;;
83827;SDS011;74656;48.870;12.562;2024-01-06T15:45:52;8.43;;;5.50;;
83827;SDS011;74656;48.870;12.562;2024-01-06T15:48:54;21.20;;;11.27;;
83827;SDS011;74656;48.870;12.562;2024-01-06T15:51:56;30.70;;;20.48;;
83827;SDS011;74656;48.870;12.562;2024-01-06T15:54:58;9.52;;;5.88;;
83827;SDS011;74656;48.870;12.562;2024-01-06T15:58:00;7.82;;;5.65;;
83827;SDS011;74656;48.870;12.562;2024-01-06T16:01:02;12.00;;;6.38;;
83827;SDS011;74656;48.870;12.562;2024-01-06T16:04:04;9.40;;;4.95;;
83827;SDS011;74656;48.870;12.562;2024-01-06T16:07:06;11.45;;;5.18;;
83827;SDS011;74656;48.870;12.562;2024-01-06T16:10:07;7.55;;;5.50;;
83827;SDS011;74656;48.870;12.562;2024-01-06T16:13:10;9.20;;;5.15;;
83827;SDS011;74656;48.870;12.562;2024-01-06T16:16:12;6.38;;;5.05;;
83827;SDS011;74656;48.870;12.562;2024-01-06T16:19:14;10.73;;;5.40;;
83827;SDS011;74656;48.870;12.562;2024-01-06T16:22:16;8.35;;;5.53;;
83827;SDS011;74656;48.870;12.562;2024-01-06T16:25:19;11.35;;;5.43;;
83827;SDS011;74656;48.870;12.562;2024-01-06T16:28:21;16.05;;;5.63;;
83827;SDS011;74656;48.870;12.562;2024-01-06T16:31:23;7.53;;;5.15;;
83827;SDS011;74656;48.870;12.562;2024-01-06T16:34:27;9.50;;;5.97;;
83827;SDS011;74656;48.870;12.562;2024-01-06T16:37:29;9.25;;;4.78;;
83827;SDS011;74656;48.870;12.562;2024-01-06T16:40:31;6.80;;;5.00;;
83827;SDS011;74656;48.870;12.562;2024-01-06T16:43:33;8.77;;;4.95;;
83827;SDS011;74656;48.870;12.562;2024-01-06T16:46:35;10.10;;;6.00;;
83827;SDS011;74656;48.870;12.562;2024-01-06T16:49:37;6.85;;;4.43;;
83827;SDS011;74656;48.870;12.562;2024-01-06T16:52:39;10.48;;;5.70;;
83827;SDS011;74656;48.870;12.562;2024-01-06T16:55:41;11.27;;;5.50;;
83827;SDS011;74656;48.870;12.562;2024-01-06T16:58:43;9.00;;;5.65;;
83827;SDS011;74656;48.870;12.562;2024-01-06T17:01:45;7.50;;;5.68;;
83827;SDS011;74656;48.870;12.562;2024-01-06T17:04:47;12.73;;;5.70;;
83827;SDS011;74656;48.870;12.562;2024-01-06T17:07:49;9.85;;;6.38;;
83827;SDS011;74656;48.870;12.562;2024-01-06T17:10:51;12.95;;;6.60;;
83827;SDS011;74656;48.870;12.562;2024-01-06T17:13:53;11.68;;;6.45;;
83827;SDS011;74656;48.870;12.562;2024-01-06T17:16:55;10.52;;;6.10;;
83827;SDS011;74656;48.870;12.562;2024-01-06T17:19:57;9.05;;;5.00;;
83827;SDS011;74656;48.870;12.562;2024-01-06T17:22:59;11.82;;;6.05;;
83827;SDS011;74656;48.870;12.562;2024-01-06T17:26:01;8.85;;;5.38;;
83827;SDS011;74656;48.870;12.562;2024-01-06T17:29:03;10.15;;;5.70;;
83827;SDS011;74656;48.870;12.562;2024-01-06T17:32:05;8.13;;;5.22;;
83827;SDS011;74656;48.870;12.562;2024-01-06T17:35:08;10.30;;;5.60;;
83827;SDS011;74656;48.870;12.562;2024-01-06T17:38:10;10.27;;;5.15;;
83827;SDS011;74656;48.870;12.562;2024-01-06T17:41:11;8.05;;;5.18;;
83827;SDS011;74656;48.870;12.562;2024-01-06T17:44:13;9.70;;;5.15;;
83827;SDS011;74656;48.870;12.562;2024-01-06T17:47:15;9.88;;;6.70;;
83827;SDS011;74656;48.870;12.562;2024-01-06T17:50:17;7.70;;;5.15;;
83827;SDS011;74656;48.870;12.562;2024-01-06T17:53:20;6.90;;;5.57;;
83827;SDS011;74656;48.870;12.562;2024-01-06T17:56:22;11.32;;;6.13;;
83827;SDS011;74656;48.870;12.562;2024-01-06T17:59:24;7.03;;;5.05;;
83827;SDS011;74656;48.870;12.562;2024-01-06T18:02:26;8.95;;;5.22;;